Time;durP1;ratioP1;P1;durP2;ratioP2;P2;SDS_P1;SDS_P2;PMS_P1;PMS_P2;Temp;Humidity;BMP_temperature;BMP_pressure;BME280_temperature;BME280_humidity;BME280_pressure;Samples;Min_cycle;Max_cycle;Signal;HPM_P1;HPM_P2
2022/07/21 00:01:58;;;;;;;22.30;11.90;;;;;;;19.82;87.16;101365.69;5093470;28;20052;-62
2022/07/21 00:04:24;;;;;;;18.00;10.70;;;;;;;19.76;87.06;101358.41;5092262;28;20051;-60
2022/07/21 00:06:51;;;;;;;21.75;11.30;;;;;;;19.79;86.83;101359.84;5093389;28;20044;-60
2022/07/21 00:09:19;;;;;;;21.13;11.52;;;;;;;19.85;87.13;101359.09;5092676;28;20494;-61
2022/07/21 00:11:46;;;;;;;18.23;11.68;;;;;;;19.69;88.02;101358.34;5091997;28;20048;-63
2022/07/21 00:14:12;;;;;;;21.92;11.15;;;;;;;19.71;87.23;101358.97;5093339;28;20547;-61
2022/07/21 00:16:40;;;;;;;24.75;11.25;;;;;;;19.77;87.09;101370.00;5092752;28;20413;-61
2022/07/21 00:19:08;;;;;;;19.45;12.20;;;;;;;19.80;87.61;101369.63;5092648;28;20036;-61
2022/07/21 00:21:36;;;;;;;24.75;10.70;;;;;;;19.75;87.80;101370.19;5091826;28;20044;-61
2022/07/21 00:24:03;;;;;;;19.77;10.40;;;;;;;19.81;84.38;101361.34;5093204;28;20048;-61
2022/07/21 00:26:29;;;;;;;25.38;10.73;;;;;;;19.82;83.62;101371.06;5091721;28;20127;-61
2022/07/21 00:28:56;;;;;;;21.52;10.30;;;;;;;19.85;84.17;101367.97;5092949;28;20036;-61
2022/07/21 00:31:23;;;;;;;21.52;11.18;;;;;;;19.83;85.13;101366.50;5092863;28;20097;-61
2022/07/21 00:33:51;;;;;;;20.98;12.05;;;;;;;19.79;86.22;101362.56;5092581;28;20040;-61
2022/07/21 00:36:19;;;;;;;23.83;12.55;;;;;;;19.84;86.77;101358.22;5088151;28;20048;-61
2022/07/21 00:38:47;;;;;;;23.23;11.45;;;;;;;19.80;85.65;101361.53;5093005;28;20497;-63
2022/07/21 00:41:14;;;;;;;20.52;11.38;;;;;;;19.76;86.79;101353.03;5092724;28;20048;-62
2022/07/21 00:43:41;;;;;;;22.08;11.02;;;;;;;19.73;85.36;101364.19;5093032;28;20056;-62
2022/07/21 00:46:07;;;;;;;20.10;10.93;;;;;;;19.69;84.99;101371.78;5092788;28;20052;-60
2022/07/21 00:48:34;;;;;;;16.80;10.65;;;;;;;19.68;88.01;101366.59;5092789;28;20052;-61
2022/07/21 00:51:01;;;;;;;17.23;9.88;;;;;;;19.68;86.02;101359.38;5092847;28;20044;-62
2022/07/21 00:53:28;;;;;;;21.13;10.68;;;;;;;19.65;88.85;101358.94;5092723;28;20056;-60
2022/07/21 00:55:54;;;;;;;17.08;9.13;;;;;;;19.50;84.76;101362.59;5092761;28;20428;-62
2022/07/21 00:58:23;;;;;;;20.15;10.05;;;;;;;19.50;86.15;101359.06;5092648;28;20052;-60
2022/07/21 01:00:51;;;;;;;20.20;9.10;;;;;;;19.41;85.66;101365.63;5091791;28;20413;-60
2022/07/21 01:03:17;;;;;;;17.45;10.50;;;;;;;19.47;87.52;101371.06;5092725;28;20052;-62
2022/07/21 01:05:44;;;;;;;17.25;9.48;;;;;;;19.53;88.77;101372.94;5092701;28;20044;-63
2022/07/21 01:08:14;;;;;;;19.55;10.75;;;;;;;19.57;88.72;101357.22;5092648;28;20504;-63
2022/07/21 01:10:41;;;;;;;17.60;10.30;;;;;;;19.53;88.04;101370.25;5091478;28;20131;-62
2022/07/21 01:13:08;;;;;;;18.13;10.05;;;;;;;19.43;89.23;101371.63;5092448;28;20048;-62
2022/07/21 01:15:35;;;;;;;17.95;9.77;;;;;;;19.49;89.00;101378.94;5092174;28;20055;-61
2022/07/21 01:18:02;;;;;;;20.88;10.82;;;;;;;19.49;90.77;101387.81;5092706;28;20048;-61
2022/07/21 01:20:34;;;;;;;20.10;10.68;;;;;;;19.51;91.32;101379.56;5091231;28;20044;-61
2022/07/21 01:23:02;;;;;;;21.10;10.98;;;;;;;19.50;90.81;101392.19;5093153;28;20059;-61
2022/07/21 01:25:29;;;;;;;18.98;10.02;;;;;;;19.38;90.70;101389.19;5095985;28;20478;-61
2022/07/21 01:27:56;;;;;;;20.33;10.40;;;;;;;19.52;91.44;101395.50;5096254;28;20048;-62
2022/07/21 01:30:22;;;;;;;16.80;9.90;;;;;;;19.45;92.38;101389.25;5083817;28;20074;-62
2022/07/21 01:32:49;;;;;;;21.33;10.65;;;;;;;19.50;90.73;101388.66;5075831;28;20047;-62
2022/07/21 01:35:16;;;;;;;18.63;11.00;;;;;;;19.50;92.08;101386.81;5075278;28;20048;-62
2022/07/21 01:37:45;;;;;;;18.05;9.75;;;;;;;19.45;91.52;101388.44;5075478;28;20110;-62
2022/07/21 01:43:00;;;;;;;16.08;9.02;;;;;;;19.38;90.99;101391.91;5096062;28;20047;-61
2022/07/21 01:45:28;;;;;;;17.15;8.80;;;;;;;19.43;91.11;101394.00;5095263;28;20128;-61
2022/07/21 01:47:55;;;;;;;16.67;9.10;;;;;;;19.45;91.71;101397.31;5095976;28;20486;-61
2022/07/21 01:50:26;;;;;;;17.67;8.52;;;;;;;19.43;91.42;101396.69;5095845;28;20094;-62
2022/07/21 01:52:55;;;;;;;16.75;9.13;;;;;;;19.43;91.13;101394.00;5096084;28;20394;-62
2022/07/21 01:55:23;;;;;;;14.70;8.40;;;;;;;19.45;91.05;101389.25;5095820;28;20052;-62
2022/07/21 01:57:50;;;;;;;16.70;9.23;;;;;;;19.42;91.14;101392.34;5095493;28;20097;-64
2022/07/21 02:00:17;;;;;;;16.60;9.73;;;;;;;19.41;91.72;101389.84;5095684;28;20040;-63
2022/07/21 02:02:45;;;;;;;17.15;10.25;;;;;;;19.47;93.16;101394.44;5095894;28;20071;-62
2022/07/21 02:05:11;;;;;;;17.38;10.43;;;;;;;19.51;93.05;101393.84;5089418;28;20136;-63
2022/07/21 02:07:38;;;;;;;20.08;9.95;;;;;;;19.60;90.91;101382.94;5078337;28;20059;-62
2022/07/21 02:10:05;;;;;;;18.98;10.57;;;;;;;19.56;91.45;101382.50;5075442;28;20048;-61
2022/07/21 02:12:33;;;;;;;18.60;10.52;;;;;;;19.46;91.51;101377.44;5090656;28;20040;-63
2022/07/21 02:15:00;;;;;;;20.05;10.98;;;;;;;19.44;92.08;101379.50;5095210;28;20071;-61
2022/07/21 02:17:26;;;;;;;19.65;11.18;;;;;;;19.51;93.60;101377.69;5095202;28;20051;-63
2022/07/21 02:19:53;;;;;;;20.30;10.75;;;;;;;19.36;90.67;101385.06;5095043;28;20062;-63
2022/07/21 02:22:25;;;;;;;17.58;10.18;;;;;;;19.42;92.51;101376.19;5093991;28;20044;-61
2022/07/21 02:24:52;;;;;;;19.65;10.50;;;;;;;19.45;92.10;101372.28;5076590;28;20048;-61
2022/07/21 02:27:18;;;;;;;21.25;11.48;;;;;;;19.42;92.91;101373.50;5074871;28;20426;-61
2022/07/21 02:29:45;;;;;;;16.98;11.77;;;;;;;19.43;93.34;101374.31;5074899;28;20110;-61
2022/07/21 02:32:12;;;;;;;19.00;11.27;;;;;;;19.46;91.35;101376.63;5074127;28;20052;-61
2022/07/21 02:34:38;;;;;;;19.17;11.75;;;;;;;19.43;93.56;101382.38;5073402;28;20510;-63
2022/07/21 02:37:05;;;;;;;24.42;12.38;;;;;;;19.42;92.99;101381.56;5074721;28;20079;-61
2022/07/21 02:39:32;;;;;;;19.67;11.57;;;;;;;19.46;93.17;101382.84;5074443;28;20032;-61
2022/07/21 02:41:59;;;;;;;24.73;13.30;;;;;;;19.44;93.27;101382.19;5074267;28;20128;-61
2022/07/21 02:44:25;;;;;;;20.83;12.38;;;;;;;19.46;94.44;101377.44;5074361;28;20044;-60
2022/07/21 02:46:52;;;;;;;20.85;11.55;;;;;;;19.45;93.70;101383.06;5074220;28;20068;-61
2022/07/21 02:49:18;;;;;;;22.13;12.35;;;;;;;19.49;93.81;101382.44;5074203;28;20047;-60
2022/07/21 02:51:45;;;;;;;25.95;13.02;;;;;;;19.42;93.02;101381.56;5074291;28;20052;-61
2022/07/21 02:54:12;;;;;;;23.42;12.32;;;;;;;19.47;94.54;101375.63;5074397;28;20044;-60
2022/07/21 02:56:38;;;;;;;20.30;12.43;;;;;;;19.52;93.60;101381.25;5073875;28;20127;-60
2022/07/21 02:59:05;;;;;;;25.73;13.20;;;;;;;19.42;90.63;101368.13;5074046;28;20040;-61
2022/07/21 03:01:32;;;;;;;21.45;13.10;;;;;;;19.34;90.81;101374.50;5093680;28;20044;-61
2022/07/21 03:03:58;;;;;;;21.67;13.38;;;;;;;19.36;91.15;101363.53;5094076;28;20052;-60
2022/07/21 03:06:25;;;;;;;23.63;14.00;;;;;;;19.27;90.71;101364.72;5093984;28;20089;-60
2022/07/21 03:08:52;;;;;;;22.55;13.93;;;;;;;19.11;91.60;101361.28;5094269;28;20040;-61
2022/07/21 03:11:19;;;;;;;22.83;12.70;;;;;;;19.10;92.04;101356.94;5094298;28;20119;-62
2022/07/21 03:13:46;;;;;;;27.95;13.48;;;;;;;19.09;92.71;101360.66;5094127;28;20507;-60
2022/07/21 03:16:13;;;;;;;26.73;13.43;;;;;;;18.94;91.81;101354.56;5093765;28;20101;-60
2022/07/21 03:18:41;;;;;;;24.20;13.98;;;;;;;18.95;92.60;101362.41;5094242;28;20044;-62
2022/07/21 03:21:08;;;;;;;24.42;13.95;;;;;;;18.97;91.73;101362.22;5094199;28;20094;-62
2022/07/21 03:23:35;;;;;;;27.23;14.70;;;;;;;18.97;92.88;101357.69;5094169;28;20044;-60
2022/07/21 03:26:02;;;;;;;29.10;13.45;;;;;;;18.93;91.78;101353.69;5094191;28;20044;-60
2022/07/21 03:28:29;;;;;;;24.02;14.15;;;;;;;19.03;92.36;101347.16;5094202;28;20082;-62
2022/07/21 03:30:56;;;;;;;26.88;13.85;;;;;;;19.02;92.07;101342.81;5093898;28;20047;-60
2022/07/21 03:33:23;;;;;;;21.80;14.00;;;;;;;19.05;91.29;101337.06;5093491;28;20097;-62
2022/07/21 03:35:50;;;;;;;23.50;13.80;;;;;;;19.01;93.63;101339.31;5083563;28;20043;-62
2022/07/21 03:38:16;;;;;;;26.20;13.07;;;;;;;19.04;91.99;101343.44;5074140;28;20075;-62
2022/07/21 03:40:43;;;;;;;23.10;13.93;;;;;;;19.00;92.87;101334.94;5081341;28;20036;-62
2022/07/21 03:43:10;;;;;;;26.58;14.18;;;;;;;18.96;93.81;101339.88;5093815;28;20048;-61
2022/07/21 03:45:36;;;;;;;24.55;14.25;;;;;;;19.01;92.92;101336.63;5092590;28;20044;-61
2022/07/21 03:48:06;;;;;;;24.40;13.40;;;;;;;19.01;91.90;101336.63;5093736;28;20048;-61
2022/07/21 03:50:34;;;;;;;27.58;14.73;;;;;;;18.94;92.90;101335.72;5092910;28;20458;-61
2022/07/21 03:53:01;;;;;;;26.65;15.05;;;;;;;18.82;92.98;101335.41;5093536;28;20048;-61
2022/07/21 03:55:28;;;;;;;23.27;14.50;;;;;;;18.84;93.33;101338.75;5093653;28;20079;-61
2022/07/21 03:57:57;;;;;;;25.98;15.32;;;;;;;18.91;94.09;101345.00;5093417;28;20048;-62
2022/07/21 04:00:30;;;;;;;26.52;15.07;;;;;;;18.90;94.36;101332.59;5093044;28;20090;-62
2022/07/21 04:02:59;;;;;;;25.52;15.15;;;;;;;18.90;93.05;101335.28;5093265;28;20471;-62
2022/07/21 04:05:26;;;;;;;27.40;15.20;;;;;;;18.91;92.52;101331.56;5092757;28;20078;-60
2022/07/21 04:07:54;;;;;;;26.50;14.80;;;;;;;18.99;91.88;101325.19;5093388;28;20366;-62
2022/07/21 04:10:24;;;;;;;29.02;14.70;;;;;;;19.01;90.66;101338.44;5093132;28;20109;-62
2022/07/21 04:12:52;;;;;;;24.77;15.52;;;;;;;18.85;91.96;101329.66;5093429;28;20050;-61
2022/07/21 04:15:20;;;;;;;26.10;15.02;;;;;;;18.78;92.84;101331.44;5093176;28;20500;-60
2022/07/21 04:17:48;;;;;;;25.63;15.60;;;;;;;18.78;93.01;101328.75;5093110;28;20044;-62
2022/07/21 04:20:15;;;;;;;30.52;15.23;;;;;;;18.85;93.31;101326.16;5092715;28;20036;-60
2022/07/21 04:22:44;;;;;;;33.08;16.20;;;;;;;18.92;93.83;101325.16;5093013;28;20148;-62
2022/07/21 04:25:11;;;;;;;26.40;16.27;;;;;;;18.76;93.91;101317.34;5092111;28;20049;-60
2022/07/21 04:27:38;;;;;;;38.40;16.70;;;;;;;18.85;93.83;101321.59;5093065;28;20040;-62
2022/07/21 04:30:07;;;;;;;26.23;16.70;;;;;;;18.73;94.60;101321.25;5083034;28;20498;-60
2022/07/21 04:32:34;;;;;;;26.33;16.88;;;;;;;18.85;94.32;101328.84;5072730;28;20048;-60
2022/07/21 04:35:00;;;;;;;31.40;16.65;;;;;;;18.87;95.25;101318.72;5072892;28;20452;-61
2022/07/21 04:37:27;;;;;;;28.65;16.35;;;;;;;18.83;93.84;101322.81;5072964;28;20056;-62
2022/07/21 04:39:54;;;;;;;27.55;16.58;;;;;;;18.82;93.33;101321.97;5071724;28;20045;-60
2022/07/21 04:42:21;;;;;;;29.10;16.35;;;;;;;18.85;94.61;101318.91;5072313;28;20055;-62
2022/07/21 04:44:48;;;;;;;25.60;15.45;;;;;;;19.00;93.16;101318.81;5072947;28;20036;-61
2022/07/21 04:47:15;;;;;;;29.23;16.63;;;;;;;18.97;94.50;101319.19;5072750;28;20044;-60
2022/07/21 04:49:41;;;;;;;29.15;16.50;;;;;;;19.01;93.52;101325.88;5073024;28;20514;-62
2022/07/21 04:52:08;;;;;;;26.23;15.38;;;;;;;18.97;91.97;101324.56;5072960;28;20048;-62
2022/07/21 04:54:35;;;;;;;29.75;15.38;;;;;;;18.98;91.59;101328.94;5072721;28;20090;-61
2022/07/21 04:57:04;;;;;;;28.92;15.85;;;;;;;19.05;91.95;101337.06;5072867;28;20052;-62
2022/07/21 04:59:30;;;;;;;29.23;15.20;;;;;;;19.07;91.44;101340.38;5074614;28;20078;-62
2022/07/21 05:01:58;;;;;;;28.80;14.00;;;;;;;19.02;91.63;101337.44;5076595;28;20505;-62
2022/07/21 05:04:25;;;;;;;30.45;16.08;;;;;;;19.00;92.39;101340.31;5075649;28;20418;-61
2022/07/21 05:06:53;;;;;;;27.25;15.13;;;;;;;19.07;92.75;101348.44;5082057;28;20032;-61
2022/07/21 05:09:20;;;;;;;34.03;15.85;;;;;;;19.15;91.71;101351.78;5076455;28;20052;-62
2022/07/21 05:11:46;;;;;;;26.20;14.13;;;;;;;19.23;90.75;101350.84;5086326;28;20050;-61
2022/07/21 05:14:13;;;;;;;25.45;14.80;;;;;;;19.24;90.05;101355.16;5096694;28;20044;-61
2022/07/21 05:16:42;;;;;;;28.92;14.70;;;;;;;19.34;89.62;101358.34;5078222;28;20171;-61
2022/07/21 05:19:09;;;;;;;27.27;15.13;;;;;;;19.35;88.06;101356.47;5096032;28;20577;-61
2022/07/21 05:21:36;;;;;;;23.20;14.05;;;;;;;19.33;88.97;101362.06;5096113;28;20047;-61
2022/07/21 05:24:03;;;;;;;29.10;13.57;;;;;;;19.37;88.03;101360.66;5085091;28;20090;-61
2022/07/21 05:26:30;;;;;;;25.90;14.02;;;;;;;19.33;88.18;101362.06;5075911;28;20052;-63
2022/07/21 05:28:57;;;;;;;25.38;13.75;;;;;;;19.26;89.15;101360.34;5076009;28;20075;-61
2022/07/21 05:31:23;;;;;;;25.73;13.57;;;;;;;19.27;88.83;101362.03;5075113;28;20041;-62
2022/07/21 05:33:50;;;;;;;23.17;14.20;;;;;;;19.23;90.76;101355.34;5075980;28;20052;-61
2022/07/21 05:36:18;;;;;;;24.67;14.32;;;;;;;19.27;91.31;101353.97;5075381;28;20052;-61
2022/07/21 05:38:45;;;;;;;26.08;14.80;;;;;;;19.31;88.16;101361.44;5075500;28;20040;-61
2022/07/21 05:41:11;;;;;;;26.48;14.02;;;;;;;19.34;88.29;101354.84;5081180;28;20070;-61
2022/07/21 05:43:38;;;;;;;23.13;14.00;;;;;;;19.35;86.74;101360.00;5096066;28;20093;-62
2022/07/21 05:46:05;;;;;;;22.17;14.30;;;;;;;19.35;87.87;101360.00;5095708;28;20086;-61
2022/07/21 05:48:31;;;;;;;29.25;14.73;;;;;;;19.33;87.28;101359.38;5095621;28;20405;-61
2022/07/21 05:50:58;;;;;;;26.60;13.73;;;;;;;19.43;87.02;101355.50;5095831;28;20090;-61
2022/07/21 05:53:25;;;;;;;22.95;13.48;;;;;;;19.31;87.19;101360.59;5095449;28;20044;-61
2022/07/21 05:55:51;;;;;;;23.55;14.20;;;;;;;19.36;87.82;101358.16;5095657;28;20051;-62
2022/07/21 05:58:19;;;;;;;24.13;14.70;;;;;;;19.38;86.77;101356.91;5094345;28;20040;-61
2022/07/21 06:01:07;;;;;;;28.55;14.40;;;;;;;19.38;88.00;101356.91;5089725;28;20535;-61
2022/07/21 06:03:35;;;;;;;23.10;14.40;;;;;;;19.40;86.82;101356.72;5095237;28;20131;-61
2022/07/21 06:06:02;;;;;;;25.83;14.57;;;;;;;19.38;86.13;101353.41;5094257;28;20455;-61
2022/07/21 06:08:28;;;;;;;23.55;14.02;;;;;;;19.54;86.84;101355.78;5095687;28;20047;-61
2022/07/21 06:10:55;;;;;;;25.52;14.15;;;;;;;19.42;87.46;101360.03;5094355;28;20089;-62
2022/07/21 06:13:22;;;;;;;25.20;14.30;;;;;;;19.51;86.43;101356.16;5095777;28;20048;-62
2022/07/21 06:15:49;;;;;;;23.40;14.07;;;;;;;19.50;85.90;101369.81;5095274;28;20559;-62
2022/07/21 06:18:17;;;;;;;23.30;13.65;;;;;;;19.49;86.25;101362.78;5095667;28;20140;-63
2022/07/21 06:20:44;;;;;;;22.58;14.27;;;;;;;19.43;86.60;101361.72;5095090;28;20039;-61
2022/07/21 06:23:11;;;;;;;25.65;13.82;;;;;;;19.43;86.02;101363.56;5092502;28;20040;-61
2022/07/21 06:25:38;;;;;;;26.23;14.07;;;;;;;19.41;85.84;101360.25;5074951;28;20049;-61
2022/07/21 06:28:05;;;;;;;27.92;14.10;;;;;;;19.60;87.67;101369.47;5074584;28;20049;-59
2022/07/21 06:30:31;;;;;;;23.10;13.77;;;;;;;19.69;85.20;101357.50;5075078;28;20066;-59
2022/07/21 06:32:58;;;;;;;26.45;13.90;;;;;;;19.77;85.70;101361.94;5074600;28;20048;-59
2022/07/21 06:35:25;;;;;;;27.65;12.57;;;;;;;19.89;84.93;101358.47;5079879;28;20044;-59
2022/07/21 06:37:52;;;;;;;24.25;13.18;;;;;;;19.96;82.58;101365.75;5073656;28;20048;-59
2022/07/21 06:40:19;;;;;;;23.60;12.95;;;;;;;20.02;82.68;101365.75;5074705;28;20048;-60
2022/07/21 06:42:46;;;;;;;20.27;12.57;;;;;;;19.99;81.00;101357.25;5094414;28;20048;-60
2022/07/21 06:45:26;;;;;;;19.75;12.77;;;;;;;19.98;81.84;101361.81;5092891;28;20044;-60
2022/07/21 06:48:08;;;;;;;21.35;11.90;;;;;;;19.92;81.35;101357.25;5094611;28;20435;-58
2022/07/21 06:50:36;;;;;;;28.20;13.38;;;;;;;19.93;81.70;101359.72;5074659;28;20454;-59
2022/07/21 06:53:04;;;;;;;25.40;12.85;;;;;;;19.83;81.72;101353.03;5079398;28;20043;-59
2022/07/21 06:55:31;;;;;;;22.80;12.30;;;;;;;19.87;81.74;101357.00;5073248;28;20091;-61
2022/07/21 06:58:07;;;;;;;23.70;12.82;;;;;;;19.78;82.42;101361.72;5073072;28;20045;-61
2022/07/21 07:00:34;;;;;;;25.33;14.68;;;;;;;19.67;82.60;101357.72;5107316;28;20516;-61
2022/07/21 07:03:01;;;;;;;23.48;12.95;;;;;;;19.73;82.73;101358.81;5085168;28;20152;-61
2022/07/21 07:05:30;;;;;;;22.60;12.38;;;;;;;19.79;82.70;101376.00;5081675;28;20055;-62
2022/07/21 07:07:56;;;;;;;28.17;13.15;;;;;;;19.86;82.87;101368.81;5088200;28;20495;-61
2022/07/21 07:10:23;;;;;;;23.27;12.50;;;;;;;19.90;83.70;101376.28;5087442;28;20037;-63
2022/07/21 07:12:50;;;;;;;23.23;12.32;;;;;;;20.08;80.96;101374.91;5088995;28;20602;-61
2022/07/21 07:15:36;;;;;;;28.58;13.30;;;;;;;20.15;80.90;101381.13;5094337;28;20073;-62
2022/07/21 07:18:03;;;;;;;20.90;11.18;;;;;;;20.12;79.87;101385.06;5105543;28;20493;-61
2022/07/21 07:20:31;;;;;;;22.42;10.70;;;;;;;20.16;79.63;101384.69;5107316;28;20100;-62
2022/07/21 07:22:58;;;;;;;21.92;10.43;;;;;;;20.22;78.70;101381.16;5105588;28;20047;-63
2022/07/21 07:25:25;;;;;;;21.33;10.77;;;;;;;20.18;78.91;101369.97;5085368;28;20066;-61
2022/07/21 07:27:54;;;;;;;23.55;10.05;;;;;;;20.30;78.61;101379.13;5081992;28;20044;-60
2022/07/21 07:30:20;;;;;;;20.27;10.20;;;;;;;20.53;77.92;101394.09;5080263;28;20063;-53
2022/07/21 07:32:47;;;;;;;20.10;10.13;;;;;;;20.59;77.28;101385.22;5102372;28;20047;-53
2022/07/21 07:35:15;;;;;;;17.05;9.93;;;;;;;20.61;76.01;101377.78;5105998;28;20118;-53
2022/07/21 07:37:43;;;;;;;21.52;10.18;;;;;;;20.53;76.85;101367.97;5097378;28;20096;-54
2022/07/21 07:40:14;;;;;;;19.45;10.02;;;;;;;20.64;76.10;101358.47;5102872;28;20048;-54
2022/07/21 07:42:41;;;;;;;19.52;9.13;;;;;;;20.70;76.06;101373.00;5106096;28;20058;-53
2022/07/21 07:45:08;;;;;;;18.73;9.38;;;;;;;20.64;74.88;101368.44;5096758;28;20044;-53
2022/07/21 07:47:34;;;;;;;24.73;9.05;;;;;;;20.70;74.49;101371.16;5108584;28;20036;-53
2022/07/21 07:50:02;;;;;;;18.90;9.00;;;;;;;20.78;74.54;101372.81;5101197;28;20047;-53
2022/07/21 07:52:29;;;;;;;18.42;8.52;;;;;;;20.86;73.35;101377.16;5100405;28;20076;-54
2022/07/21 07:54:55;;;;;;;13.63;6.88;;;;;;;20.86;70.56;101383.38;5097471;28;20040;-54
2022/07/21 07:57:22;;;;;;;17.45;7.65;;;;;;;20.90;71.72;101375.69;5094353;28;20054;-54
2022/07/21 07:59:49;;;;;;;16.38;7.57;;;;;;;20.97;71.14;101378.41;5105701;28;20040;-54
2022/07/21 08:02:15;;;;;;;19.70;7.95;;;;;;;20.89;71.08;101380.28;5102960;28;20126;-53
2022/07/21 08:04:42;;;;;;;15.15;7.47;;;;;;;20.95;71.13;101378.59;5087548;28;20056;-55
2022/07/21 08:07:09;;;;;;;19.67;8.27;;;;;;;21.17;71.44;101373.00;5086841;28;20062;-54
2022/07/21 08:09:35;;;;;;;13.55;7.70;;;;;;;21.18;70.76;101375.50;5101605;28;20037;-55
2022/07/21 08:12:02;;;;;;;20.95;8.27;;;;;;;21.36;70.22;101374.03;5084786;28;20071;-54
2022/07/21 08:14:29;;;;;;;18.95;8.38;;;;;;;21.44;69.38;101373.78;5092677;28;20036;-52
2022/07/21 08:16:58;;;;;;;14.65;8.38;;;;;;;21.27;69.45;101370.72;5108453;28;20502;-54
2022/07/21 08:19:26;;;;;;;19.05;8.88;;;;;;;21.32;69.26;101368.22;5095430;28;20053;-54
2022/07/21 08:21:54;;;;;;;17.23;8.43;;;;;;;21.25;68.72;101365.53;5095951;28;20047;-54
2022/07/21 08:24:37;;;;;;;18.27;9.05;;;;;;;21.19;69.69;101362.81;5089111;28;20055;-54
2022/07/21 08:27:04;;;;;;;22.77;9.43;;;;;;;21.26;68.15;101364.47;5100275;28;20044;-54
2022/07/21 08:29:31;;;;;;;18.67;8.68;;;;;;;21.24;69.03;101366.56;5093279;28;20035;-53
2022/07/21 08:31:58;;;;;;;18.48;8.70;;;;;;;21.47;67.97;101366.13;5084905;28;20032;-54
2022/07/21 08:34:26;;;;;;;19.73;9.07;;;;;;;21.60;67.75;101370.66;5083720;28;20048;-54
2022/07/21 08:36:53;;;;;;;18.30;8.77;;;;;;;21.88;66.50;101369.53;5086189;28;20095;-54
2022/07/21 08:39:20;;;;;;;21.17;9.85;;;;;;;21.87;66.32;101367.06;5107056;28;20066;-54
2022/07/21 08:41:47;;;;;;;25.25;10.18;;;;;;;21.90;65.33;101372.03;5095398;28;20060;-54
2022/07/21 08:44:17;;;;;;;17.48;9.35;;;;;;;21.98;64.56;101374.50;5094281;28;20048;-54
2022/07/21 08:46:49;;;;;;;21.35;10.23;;;;;;;21.97;64.73;101378.22;5104312;28;20036;-55
2022/07/21 08:49:20;;;;;;;16.95;10.18;;;;;;;22.07;63.69;101367.81;5097512;28;20098;-54
2022/07/21 08:51:47;;;;;;;22.10;9.83;;;;;;;22.28;63.73;101373.94;5080098;28;20417;-54
2022/07/21 08:54:14;;;;;;;19.98;9.93;;;;;;;22.42;63.67;101373.66;5076300;28;20044;-55
2022/07/21 08:56:40;;;;;;;16.10;9.77;;;;;;;22.58;62.22;101375.00;5103841;28;20047;-55
2022/07/21 08:59:07;;;;;;;22.13;10.15;;;;;;;22.56;62.44;101374.41;5092940;28;20072;-55
2022/07/21 09:01:34;;;;;;;22.58;10.05;;;;;;;22.65;62.30;101363.31;5109913;28;20379;-54
2022/07/21 09:04:30;;;;;;;27.88;13.43;;;;;;;22.72;60.77;101370.34;5080547;28;20052;-54
2022/07/21 09:07:04;;;;;;;24.30;9.95;;;;;;;22.40;62.21;101372.22;5109638;28;20078;-55
2022/07/21 09:09:33;;;;;;;21.27;10.57;;;;;;;22.16;63.31;101379.19;5084174;28;20058;-54
2022/07/21 09:12:02;;;;;;;20.25;11.52;;;;;;;21.78;64.88;101379.97;5097007;28;20036;-54
2022/07/21 09:14:32;;;;;;;21.77;11.80;;;;;;;21.71;65.77;101390.78;5108429;28;20062;-54
2022/07/21 09:17:02;;;;;;;27.45;11.82;;;;;;;21.80;66.55;101384.09;5088750;28;20049;-54
2022/07/21 09:19:37;;;;;;;24.63;12.25;;;;;;;21.94;65.43;101373.25;5084313;28;20035;-55
2022/07/21 09:22:11;;;;;;;24.55;12.57;;;;;;;22.30;64.99;101363.75;5107490;27;20087;-54
2022/07/21 09:24:39;;;;;;;26.83;12.25;;;;;;;22.59;63.89;101365.00;5100709;28;20499;-55
2022/07/21 09:27:12;;;;;;;24.17;12.15;;;;;;;22.98;62.12;101363.06;5098265;28;20040;-53
2022/07/21 09:29:44;;;;;;;22.23;11.50;;;;;;;22.74;60.95;101373.66;5091321;27;20046;-55
2022/07/21 09:32:14;;;;;;;26.77;11.30;;;;;;;22.85;60.92;101372.13;5105271;28;20093;-53
2022/07/21 09:34:41;;;;;;;20.05;9.95;;;;;;;22.89;59.42;101383.31;5100550;27;20036;-55
2022/07/21 09:37:08;;;;;;;17.67;9.02;;;;;;;22.59;57.87;101394.75;5111234;28;20040;-54
2022/07/21 09:39:57;;;;;;;24.10;10.35;;;;;;;22.38;60.03;101390.53;5099305;28;20074;-53
2022/07/21 09:42:27;;;;;;;18.58;10.35;;;;;;;22.49;60.43;101387.13;5096229;28;20503;-55
2022/07/21 09:44:58;;;;;;;20.90;9.63;;;;;;;22.45;60.58;101391.31;5110419;28;20044;-53
2022/07/21 09:47:29;;;;;;;21.05;10.20;;;;;;;22.30;60.59;101393.47;5081360;28;20450;-54
2022/07/21 09:49:58;;;;;;;18.20;9.68;;;;;;;22.18;60.44;101387.91;5090850;28;20493;-54
2022/07/21 09:52:45;;;;;;;21.75;10.10;;;;;;;22.19;61.54;101385.00;5097987;28;20059;-54
2022/07/21 09:55:16;;;;;;;19.55;9.55;;;;;;;22.28;61.94;101382.06;5110253;28;20040;-54
2022/07/21 09:57:44;;;;;;;20.38;9.73;;;;;;;22.35;62.93;101390.97;5099308;28;20043;-54
2022/07/21 10:00:16;;;;;;;22.30;9.45;;;;;;;22.21;60.91;101388.31;5103298;28;20081;-54
2022/07/21 10:02:44;;;;;;;20.55;9.40;;;;;;;22.19;60.93;101400.34;5101385;28;20120;-54
2022/07/21 10:05:15;;;;;;;20.85;10.07;;;;;;;21.88;61.76;101398.41;5096173;28;20044;-54
2022/07/21 10:07:45;;;;;;;23.77;10.15;;;;;;;21.57;62.97;101408.88;5100697;28;20544;-60
2022/07/21 10:10:12;;;;;;;21.13;9.98;;;;;;;21.57;63.53;101408.88;5085214;28;20043;-62
2022/07/21 10:12:39;;;;;;;20.63;9.32;;;;;;;21.44;64.36;101406.19;5095171;28;20051;-62
2022/07/21 10:15:06;;;;;;;22.17;10.10;;;;;;;21.41;64.44;101406.59;5103496;28;20490;-60
2022/07/21 10:17:33;;;;;;;21.35;10.52;;;;;;;21.34;65.21;101411.16;5096495;28;20039;-62
2022/07/21 10:20:11;;;;;;;21.33;9.95;;;;;;;21.32;65.53;101413.25;5094743;28;20109;-61
2022/07/21 10:22:51;;;;;;;28.58;10.02;;;;;;;21.35;65.67;101416.34;5080772;28;20040;-62
2022/07/21 10:25:19;;;;;;;23.23;10.50;;;;;;;21.28;65.92;101426.31;5108791;28;20036;-62
2022/07/21 10:30:49;;;;;;;21.58;10.57;;;;;;;21.05;67.92;101429.47;5122982;27;20417;-63
2022/07/21 10:33:19;;;;;;;22.45;11.27;;;;;;;20.96;68.97;101431.53;5114047;27;20044;-63
2022/07/21 10:35:48;;;;;;;23.92;11.32;;;;;;;20.88;69.80;101424.47;5118663;27;20088;-63
2022/07/21 10:38:33;;;;;;;27.40;13.32;;;;;;;20.74;71.78;101425.47;5120538;27;20137;-62
2022/07/21 10:41:01;;;;;;;24.02;12.80;;;;;;;20.61;73.56;101433.53;5122854;28;20051;-63
2022/07/21 10:46:33;;;;;;;27.13;13.93;;;;;;;20.42;75.91;101427.84;5109494;27;20036;-62
2022/07/21 10:49:00;;;;;;;23.10;13.52;;;;;;;20.47;76.32;101432.66;5086221;28;20094;-62
2022/07/21 10:51:27;;;;;;;26.30;13.70;;;;;;;20.46;77.61;101431.78;5089738;28;20036;-62
2022/07/21 10:54:15;;;;;;;25.02;14.13;;;;;;;20.48;78.05;101434.28;5082784;28;20048;-62
2022/07/21 10:56:42;;;;;;;24.60;13.95;;;;;;;20.46;78.83;101436.34;5089750;28;20131;-61
2022/07/21 10:59:09;;;;;;;24.92;14.95;;;;;;;20.41;81.17;101439.69;5089383;28;20555;-62
2022/07/21 11:01:37;;;;;;;26.88;14.43;;;;;;;20.32;81.09;101441.72;5089369;28;20555;-62
2022/07/21 11:04:10;;;;;;;24.05;12.85;;;;;;;20.22;81.36;101443.94;5088857;28;20086;-62
2022/07/21 11:06:40;;;;;;;20.98;12.88;;;;;;;20.01;81.64;101441.34;5089702;28;20135;-63
2022/07/21 11:09:09;;;;;;;29.42;13.27;;;;;;;19.95;85.05;101442.97;5089155;28;20048;-62
2022/07/21 11:11:55;;;;;;;23.48;13.10;;;;;;;19.91;85.37;101445.25;5089860;28;20044;-62
2022/07/21 11:14:35;;;;;;;25.77;13.95;;;;;;;19.93;86.30;101442.34;5083007;28;20068;-62
2022/07/21 11:17:03;;;;;;;27.75;14.27;;;;;;;19.91;87.81;101442.56;5088543;28;20444;-64
2022/07/21 11:19:49;;;;;;;29.73;15.35;;;;;;;19.73;88.61;101437.69;5073238;28;20084;-62
2022/07/21 11:22:20;;;;;;;29.45;16.08;;;;;;;19.71;89.87;101444.28;5088921;28;20044;-63
2022/07/21 11:24:51;;;;;;;31.23;16.08;;;;;;;19.65;89.68;101439.69;5088644;28;20405;-63
2022/07/21 11:27:23;;;;;;;28.20;15.48;;;;;;;19.59;90.85;101440.47;5088544;28;20058;-63